sensor_id;sensor_type;location;lat;lon;timestamp;temperature;humidity
18408;DHT22;9330;52.210;21.174;2023-09-08T00:00:56;16.10;99.90
18408;DHT22;9330;52.210;21.174;2023-09-08T00:03:23;16.20;99.90
18408;DHT22;9330;52.210;21.174;2023-09-08T00:05:50;16.10;99.90
18408;DHT22;9330;52.210;21.174;2023-09-08T00:08:17;16.10;99.90
18408;DHT22;9330;52.210;21.174;2023-09-08T00:10:43;16.10;99.90
18408;DHT22;9330;52.210;21.174;2023-09-08T00:13:11;16.20;99.90
18408;DHT22;9330;52.210;21.174;2023-09-08T00:15:38;16.20;99.90
18408;DHT22;9330;52.210;21.174;2023-09-08T00:18:05;16.20;99.90
18408;DHT22;9330;52.210;21.174;2023-09-08T00:20:32;16.10;99.90
18408;DHT22;9330;52.210;21.174;2023-09-08T00:22:59;16.20;99.90
18408;DHT22;9330;52.210;21.174;2023-09-08T00:25:25;16.20;99.90
18408;DHT22;9330;52.210;21.174;2023-09-08T00:27:52;16.20;99.90
18408;DHT22;9330;52.210;21.174;2023-09-08T00:30:20;16.20;99.90
18408;DHT22;9330;52.210;21.174;2023-09-08T00:32:47;16.20;99.90
18408;DHT22;9330;52.210;21.174;2023-09-08T00:35:14;16.10;99.90
18408;DHT22;9330;52.210;21.174;2023-09-08T00:37:41;16.20;99.90
18408;DHT22;9330;52.210;21.174;2023-09-08T00:40:08;16.10;99.90
18408;DHT22;9330;52.210;21.174;2023-09-08T00:42:35;16.10;99.90
18408;DHT22;9330;52.210;21.174;2023-09-08T00:45:02;16.10;99.90
18408;DHT22;9330;52.210;21.174;2023-09-08T00:47:30;16.10;99.90
18408;DHT22;9330;52.210;21.174;2023-09-08T00:49:57;16.00;99.90
18408;DHT22;9330;52.210;21.174;2023-09-08T00:52:24;16.10;99.90
18408;DHT22;9330;52.210;21.174;2023-09-08T00:54:56;16.10;99.90
18408;DHT22;9330;52.210;21.174;2023-09-08T00:57:23;16.10;99.90
18408;DHT22;9330;52.210;21.174;2023-09-08T00:59:50;16.00;99.90
18408;DHT22;9330;52.210;21.174;2023-09-08T01:02:17;16.00;99.90
18408;DHT22;9330;52.210;21.174;2023-09-08T01:04:45;16.00;99.90
18408;DHT22;9330;52.210;21.174;2023-09-08T01:07:13;16.10;99.90
18408;DHT22;9330;52.210;21.174;2023-09-08T01:09:41;16.00;99.90
18408;DHT22;9330;52.210;21.174;2023-09-08T01:12:08;16.00;99.90
18408;DHT22;9330;52.210;21.174;2023-09-08T01:14:35;16.00;99.90
18408;DHT22;9330;52.210;21.174;2023-09-08T01:17:02;16.00;99.90
18408;DHT22;9330;52.210;21.174;2023-09-08T01:19:29;16.00;99.90
18408;DHT22;9330;52.210;21.174;2023-09-08T01:22:16;16.00;99.90
18408;DHT22;9330;52.210;21.174;2023-09-08T01:25:12;16.00;99.90
18408;DHT22;9330;52.210;21.174;2023-09-08T01:27:47;15.90;99.90
18408;DHT22;9330;52.210;21.174;2023-09-08T01:30:16;16.00;99.90
18408;DHT22;9330;52.210;21.174;2023-09-08T01:32:43;16.00;99.90
18408;DHT22;9330;52.210;21.174;2023-09-08T01:35:11;15.90;99.90
18408;DHT22;9330;52.210;21.174;2023-09-08T01:37:40;15.80;99.90
18408;DHT22;9330;52.210;21.174;2023-09-08T01:40:10;15.90;99.90
18408;DHT22;9330;52.210;21.174;2023-09-08T01:42:37;15.90;99.90
18408;DHT22;9330;52.210;21.174;2023-09-08T01:45:05;15.90;99.90
18408;DHT22;9330;52.210;21.174;2023-09-08T01:47:32;15.90;99.90
18408;DHT22;9330;52.210;21.174;2023-09-08T01:49:59;15.80;99.90
18408;DHT22;9330;52.210;21.174;2023-09-08T01:52:26;15.80;99.90
18408;DHT22;9330;52.210;21.174;2023-09-08T01:54:53;15.90;99.90
18408;DHT22;9330;52.210;21.174;2023-09-08T01:57:21;15.90;99.90
18408;DHT22;9330;52.210;21.174;2023-09-08T01:59:48;15.80;99.90
18408;DHT22;9330;52.210;21.174;2023-09-08T02:02:15;15.90;99.90
18408;DHT22;9330;52.210;21.174;2023-09-08T02:04:42;15.80;99.90
18408;DHT22;9330;52.210;21.174;2023-09-08T02:07:09;15.80;99.90
18408;DHT22;9330;52.210;21.174;2023-09-08T02:09:37;15.80;99.90
18408;DHT22;9330;52.210;21.174;2023-09-08T02:12:05;15.70;99.90
18408;DHT22;9330;52.210;21.174;2023-09-08T02:14:33;15.80;99.90
18408;DHT22;9330;52.210;21.174;2023-09-08T02:17:00;15.80;99.90
18408;DHT22;9330;52.210;21.174;2023-09-08T02:19:27;15.70;99.90
18408;DHT22;9330;52.210;21.174;2023-09-08T02:21:54;15.70;99.90
18408;DHT22;9330;52.210;21.174;2023-09-08T02:24:21;15.60;99.90
18408;DHT22;9330;52.210;21.174;2023-09-08T02:26:48;15.70;99.90
18408;DHT22;9330;52.210;21.174;2023-09-08T02:29:15;15.70;99.90
18408;DHT22;9330;52.210;21.174;2023-09-08T02:31:43;15.70;99.90
18408;DHT22;9330;52.210;21.174;2023-09-08T02:34:10;15.70;99.90
18408;DHT22;9330;52.210;21.174;2023-09-08T02:36:38;15.70;99.90
18408;DHT22;9330;52.210;21.174;2023-09-08T02:39:05;15.60;99.90
18408;DHT22;9330;52.210;21.174;2023-09-08T02:41:32;15.60;99.90
18408;DHT22;9330;52.210;21.174;2023-09-08T02:43:59;15.60;99.90
18408;DHT22;9330;52.210;21.174;2023-09-08T02:46:25;15.50;99.90
18408;DHT22;9330;52.210;21.174;2023-09-08T02:48:53;15.60;99.90
18408;DHT22;9330;52.210;21.174;2023-09-08T02:51:20;15.60;99.90
18408;DHT22;9330;52.210;21.174;2023-09-08T02:53:47;15.50;99.90
18408;DHT22;9330;52.210;21.174;2023-09-08T02:56:14;15.50;99.90
18408;DHT22;9330;52.210;21.174;2023-09-08T02:58:40;15.50;99.90
18408;DHT22;9330;52.210;21.174;2023-09-08T03:01:11;15.50;99.90
18408;DHT22;9330;52.210;21.174;2023-09-08T03:03:40;15.50;99.90
18408;DHT22;9330;52.210;21.174;2023-09-08T03:06:08;15.50;99.90
18408;DHT22;9330;52.210;21.174;2023-09-08T03:08:35;15.50;99.90
18408;DHT22;9330;52.210;21.174;2023-09-08T03:11:03;15.50;99.90
18408;DHT22;9330;52.210;21.174;2023-09-08T03:13:31;15.50;99.90
18408;DHT22;9330;52.210;21.174;2023-09-08T03:16:02;15.50;99.90
18408;DHT22;9330;52.210;21.174;2023-09-08T03:18:29;15.50;99.90
18408;DHT22;9330;52.210;21.174;2023-09-08T03:20:56;15.40;99.90
18408;DHT22;9330;52.210;21.174;2023-09-08T03:23:24;15.40;99.90
18408;DHT22;9330;52.210;21.174;2023-09-08T03:25:51;15.40;99.90
18408;DHT22;9330;52.210;21.174;2023-09-08T03:28:18;15.40;99.90
18408;DHT22;9330;52.210;21.174;2023-09-08T03:30:45;15.30;99.90
18408;DHT22;9330;52.210;21.174;2023-09-08T03:33:12;15.30;99.90
18408;DHT22;9330;52.210;21.174;2023-09-08T03:35:38;15.30;99.90
18408;DHT22;9330;52.210;21.174;2023-09-08T03:38:05;15.30;99.90
18408;DHT22;9330;52.210;21.174;2023-09-08T03:40:33;15.30;99.90
18408;DHT22;9330;52.210;21.174;2023-09-08T03:43:00;15.30;99.90
18408;DHT22;9330;52.210;21.174;2023-09-08T03:45:27;15.20;99.90
18408;DHT22;9330;52.210;21.174;2023-09-08T03:47:54;15.30;99.90
18408;DHT22;9330;52.210;21.174;2023-09-08T03:50:20;15.30;99.90
18408;DHT22;9330;52.210;21.174;2023-09-08T03:52:47;15.20;99.90
18408;DHT22;9330;52.210;21.174;2023-09-08T03:55:14;15.20;99.90
18408;DHT22;9330;52.210;21.174;2023-09-08T03:57:43;15.20;99.90
18408;DHT22;9330;52.210;21.174;2023-09-08T04:00:11;15.20;99.90
18408;DHT22;9330;52.210;21.174;2023-09-08T04:02:38;15.20;99.90
18408;DHT22;9330;52.210;21.174;2023-09-08T04:05:05;15.10;99.90
18408;DHT22;9330;52.210;21.174;2023-09-08T04:07:32;15.10;99.90
18408;DHT22;9330;52.210;21.174;2023-09-08T04:09:59;15.10;99.90
18408;DHT22;9330;52.210;21.174;2023-09-08T04:12:26;15.10;99.90
18408;DHT22;9330;52.210;21.174;2023-09-08T04:14:54;15.00;99.90
18408;DHT22;9330;52.210;21.174;2023-09-08T04:17:21;15.00;99.90
18408;DHT22;9330;52.210;21.174;2023-09-08T04:19:47;15.00;99.90
18408;DHT22;9330;52.210;21.174;2023-09-08T04:22:14;14.90;99.90
18408;DHT22;9330;52.210;21.174;2023-09-08T04:24:41;14.90;99.90
18408;DHT22;9330;52.210;21.174;2023-09-08T04:27:08;15.00;99.90
18408;DHT22;9330;52.210;21.174;2023-09-08T04:29:36;14.90;99.90
18408;DHT22;9330;52.210;21.174;2023-09-08T04:32:04;14.90;99.90
18408;DHT22;9330;52.210;21.174;2023-09-08T04:34:36;14.90;99.90
18408;DHT22;9330;52.210;21.174;2023-09-08T04:37:03;14.90;99.90
18408;DHT22;9330;52.210;21.174;2023-09-08T04:39:30;14.90;99.90
18408;DHT22;9330;52.210;21.174;2023-09-08T04:41:56;15.00;99.90
18408;DHT22;9330;52.210;21.174;2023-09-08T04:44:23;14.90;99.90
18408;DHT22;9330;52.210;21.174;2023-09-08T04:46:51;14.90;99.90
18408;DHT22;9330;52.210;21.174;2023-09-08T04:49:19;14.90;99.90
18408;DHT22;9330;52.210;21.174;2023-09-08T04:51:46;15.00;99.90
18408;DHT22;9330;52.210;21.174;2023-09-08T04:54:13;15.00;99.90
18408;DHT22;9330;52.210;21.174;2023-09-08T04:56:39;15.00;99.90
18408;DHT22;9330;52.210;21.174;2023-09-08T04:59:07;15.10;99.90
18408;DHT22;9330;52.210;21.174;2023-09-08T05:01:33;15.10;99.90
18408;DHT22;9330;52.210;21.174;2023-09-08T05:04:03;15.10;99.90
18408;DHT22;9330;52.210;21.174;2023-09-08T05:06:31;15.10;99.90
18408;DHT22;9330;52.210;21.174;2023-09-08T05:08:59;15.20;99.90
18408;DHT22;9330;52.210;21.174;2023-09-08T05:11:26;15.30;99.90
18408;DHT22;9330;52.210;21.174;2023-09-08T05:13:53;15.30;99.90
18408;DHT22;9330;52.210;21.174;2023-09-08T05:16:20;15.30;99.90
18408;DHT22;9330;52.210;21.174;2023-09-08T05:19:01;15.40;99.90
18408;DHT22;9330;52.210;21.174;2023-09-08T05:21:28;15.50;99.90
18408;DHT22;9330;52.210;21.174;2023-09-08T05:23:56;15.60;99.90
18408;DHT22;9330;52.210;21.174;2023-09-08T05:26:23;15.60;99.90
18408;DHT22;9330;52.210;21.174;2023-09-08T05:28:50;15.70;99.90
18408;DHT22;9330;52.210;21.174;2023-09-08T05:31:17;15.70;99.90
18408;DHT22;9330;52.210;21.174;2023-09-08T05:33:43;15.80;99.90
18408;DHT22;9330;52.210;21.174;2023-09-08T05:36:10;15.90;99.90
18408;DHT22;9330;52.210;21.174;2023-09-08T05:38:37;16.00;99.90
18408;DHT22;9330;52.210;21.174;2023-09-08T05:41:05;16.20;99.90
18408;DHT22;9330;52.210;21.174;2023-09-08T05:43:32;16.20;99.90
18408;DHT22;9330;52.210;21.174;2023-09-08T05:45:59;16.40;99.90
18408;DHT22;9330;52.210;21.174;2023-09-08T05:48:25;16.40;99.90
18408;DHT22;9330;52.210;21.174;2023-09-08T05:50:52;16.60;99.90
18408;DHT22;9330;52.210;21.174;2023-09-08T05:53:19;16.80;99.90
18408;DHT22;9330;52.210;21.174;2023-09-08T05:55:46;17.00;99.90
18408;DHT22;9330;52.210;21.174;2023-09-08T05:58:14;17.20;99.90
18408;DHT22;9330;52.210;21.174;2023-09-08T06:00:41;17.40;99.90
18408;DHT22;9330;52.210;21.174;2023-09-08T06:03:07;17.50;99.90
18408;DHT22;9330;52.210;21.174;2023-09-08T06:05:34;17.70;99.90
18408;DHT22;9330;52.210;21.174;2023-09-08T06:08:01;17.90;99.90
18408;DHT22;9330;52.210;21.174;2023-09-08T06:10:28;18.10;99.90
18408;DHT22;9330;52.210;21.174;2023-09-08T06:12:56;18.20;99.90
18408;DHT22;9330;52.210;21.174;2023-09-08T06:15:24;18.40;99.90
18408;DHT22;9330;52.210;21.174;2023-09-08T06:17:51;18.60;99.90
18408;DHT22;9330;52.210;21.174;2023-09-08T06:20:18;18.80;99.90
18408;DHT22;9330;52.210;21.174;2023-09-08T06:22:45;18.90;99.90
18408;DHT22;9330;52.210;21.174;2023-09-08T06:25:11;19.00;99.90
18408;DHT22;9330;52.210;21.174;2023-09-08T06:27:38;19.00;99.90
18408;DHT22;9330;52.210;21.174;2023-09-08T06:30:06;19.10;99.90
18408;DHT22;9330;52.210;21.174;2023-09-08T06:32:35;19.30;99.90
18408;DHT22;9330;52.210;21.174;2023-09-08T06:35:01;19.40;99.90
18408;DHT22;9330;52.210;21.174;2023-09-08T06:37:27;19.50;99.90
18408;DHT22;9330;52.210;21.174;2023-09-08T06:39:54;19.50;99.90
18408;DHT22;9330;52.210;21.174;2023-09-08T06:42:21;19.60;99.90
18408;DHT22;9330;52.210;21.174;2023-09-08T06:44:48;19.80;99.90
18408;DHT22;9330;52.210;21.174;2023-09-08T06:47:15;19.90;99.90
18408;DHT22;9330;52.210;21.174;2023-09-08T06:49:43;20.10;99.90
18408;DHT22;9330;52.210;21.174;2023-09-08T06:52:10;20.30;99.90
18408;DHT22;9330;52.210;21.174;2023-09-08T06:54:38;20.30;99.90
18408;DHT22;9330;52.210;21.174;2023-09-08T06:57:05;20.80;99.90
18408;DHT22;9330;52.210;21.174;2023-09-08T06:59:32;20.90;99.90
18408;DHT22;9330;52.210;21.174;2023-09-08T07:01:59;21.00;99.90
18408;DHT22;9330;52.210;21.174;2023-09-08T07:04:25;21.20;99.90
18408;DHT22;9330;52.210;21.174;2023-09-08T07:06:54;21.40;99.90
18408;DHT22;9330;52.210;21.174;2023-09-08T07:09:21;21.50;99.90
18408;DHT22;9330;52.210;21.174;2023-09-08T07:11:47;21.50;99.90
18408;DHT22;9330;52.210;21.174;2023-09-08T07:14:14;21.50;99.90
18408;DHT22;9330;52.210;21.174;2023-09-08T07:16:41;21.50;99.90
18408;DHT22;9330;52.210;21.174;2023-09-08T07:19:08;21.50;99.90
18408;DHT22;9330;52.210;21.174;2023-09-08T07:21:35;21.50;99.90
18408;DHT22;9330;52.210;21.174;2023-09-08T07:24:04;21.70;99.90
18408;DHT22;9330;52.210;21.174;2023-09-08T07:26:31;21.70;99.90
18408;DHT22;9330;52.210;21.174;2023-09-08T07:28:58;21.90;99.90
18408;DHT22;9330;52.210;21.174;2023-09-08T07:31:25;21.80;99.90
18408;DHT22;9330;52.210;21.174;2023-09-08T07:33:53;21.90;99.90
18408;DHT22;9330;52.210;21.174;2023-09-08T07:36:19;22.00;99.90
18408;DHT22;9330;52.210;21.174;2023-09-08T07:38:46;22.30;99.90
18408;DHT22;9330;52.210;21.174;2023-09-08T07:41:14;22.60;99.90
18408;DHT22;9330;52.210;21.174;2023-09-08T07:43:41;22.60;99.90
18408;DHT22;9330;52.210;21.174;2023-09-08T07:46:11;22.80;99.90
18408;DHT22;9330;52.210;21.174;2023-09-08T07:48:38;22.90;99.90
18408;DHT22;9330;52.210;21.174;2023-09-08T07:51:05;22.70;99.90
18408;DHT22;9330;52.210;21.174;2023-09-08T07:53:31;22.80;99.90
18408;DHT22;9330;52.210;21.174;2023-09-08T07:55:58;22.80;99.90
18408;DHT22;9330;52.210;21.174;2023-09-08T07:58:26;22.90;99.90
18408;DHT22;9330;52.210;21.174;2023-09-08T08:00:53;23.00;99.90
18408;DHT22;9330;52.210;21.174;2023-09-08T08:03:20;22.80;99.90
18408;DHT22;9330;52.210;21.174;2023-09-08T08:05:47;22.70;99.90
18408;DHT22;9330;52.210;21.174;2023-09-08T08:08:14;22.70;99.90
18408;DHT22;9330;52.210;21.174;2023-09-08T08:10:41;22.60;99.90
18408;DHT22;9330;52.210;21.174;2023-09-08T08:13:08;22.60;99.90
18408;DHT22;9330;52.210;21.174;2023-09-08T08:15:37;22.70;99.90
18408;DHT22;9330;52.210;21.174;2023-09-08T08:18:05;22.70;99.90
18408;DHT22;9330;52.210;21.174;2023-09-08T08:20:32;22.90;99.90
18408;DHT22;9330;52.210;21.174;2023-09-08T08:23:01;23.10;99.90
18408;DHT22;9330;52.210;21.174;2023-09-08T08:25:28;23.20;99.90
18408;DHT22;9330;52.210;21.174;2023-09-08T08:27:55;23.40;99.90
18408;DHT22;9330;52.210;21.174;2023-09-08T08:30:24;23.50;99.90
18408;DHT22;9330;52.210;21.174;2023-09-08T08:32:52;23.60;99.90
18408;DHT22;9330;52.210;21.174;2023-09-08T08:35:19;23.40;99.90
18408;DHT22;9330;52.210;21.174;2023-09-08T08:37:46;23.60;99.90
18408;DHT22;9330;52.210;21.174;2023-09-08T08:40:13;23.60;99.90
18408;DHT22;9330;52.210;21.174;2023-09-08T08:42:40;23.90;99.90
18408;DHT22;9330;52.210;21.174;2023-09-08T08:45:08;24.10;99.90
18408;DHT22;9330;52.210;21.174;2023-09-08T08:47:36;24.30;99.90
18408;DHT22;9330;52.210;21.174;2023-09-08T08:50:08;24.30;99.90
18408;DHT22;9330;52.210;21.174;2023-09-08T08:52:38;24.40;99.90
18408;DHT22;9330;52.210;21.174;2023-09-08T08:55:06;24.70;99.90
18408;DHT22;9330;52.210;21.174;2023-09-08T08:57:34;24.80;99.90
18408;DHT22;9330;52.210;21.174;2023-09-08T09:00:04;25.00;99.90
18408;DHT22;9330;52.210;21.174;2023-09-08T09:02:35;25.00;99.90
18408;DHT22;9330;52.210;21.174;2023-09-08T09:05:06;25.30;99.90
18408;DHT22;9330;52.210;21.174;2023-09-08T09:07:33;25.40;99.90
18408;DHT22;9330;52.210;21.174;2023-09-08T09:10:01;25.60;99.90
18408;DHT22;9330;52.210;21.174;2023-09-08T09:12:29;25.80;99.90
18408;DHT22;9330;52.210;21.174;2023-09-08T09:14:58;25.60;99.90
18408;DHT22;9330;52.210;21.174;2023-09-08T09:17:25;25.50;99.90
18408;DHT22;9330;52.210;21.174;2023-09-08T09:20:13;25.50;99.90
18408;DHT22;9330;52.210;21.174;2023-09-08T09:22:41;25.50;99.90
18408;DHT22;9330;52.210;21.174;2023-09-08T09:25:08;25.40;99.90
18408;DHT22;9330;52.210;21.174;2023-09-08T09:27:36;25.60;99.90
18408;DHT22;9330;52.210;21.174;2023-09-08T09:30:07;25.90;99.90
18408;DHT22;9330;52.210;21.174;2023-09-08T09:32:34;25.90;99.90
18408;DHT22;9330;52.210;21.174;2023-09-08T09:35:01;25.60;99.90
18408;DHT22;9330;52.210;21.174;2023-09-08T09:37:30;25.60;99.90
18408;DHT22;9330;52.210;21.174;2023-09-08T09:39:57;25.40;99.90
18408;DHT22;9330;52.210;21.174;2023-09-08T09:42:24;25.20;99.90
18408;DHT22;9330;52.210;21.174;2023-09-08T09:44:51;25.10;99.90
18408;DHT22;9330;52.210;21.174;2023-09-08T09:47:19;24.80;99.90
18408;DHT22;9330;52.210;21.174;2023-09-08T09:49:47;24.70;99.90
18408;DHT22;9330;52.210;21.174;2023-09-08T09:52:21;24.60;99.90
18408;DHT22;9330;52.210;21.174;2023-09-08T09:54:49;24.60;99.90
18408;DHT22;9330;52.210;21.174;2023-09-08T09:57:20;24.60;99.90
18408;DHT22;9330;52.210;21.174;2023-09-08T09:59:47;24.50;99.90
18408;DHT22;9330;52.210;21.174;2023-09-08T10:02:17;24.50;99.90
18408;DHT22;9330;52.210;21.174;2023-09-08T10:04:47;24.70;99.90
18408;DHT22;9330;52.210;21.174;2023-09-08T10:07:15;24.70;99.90
18408;DHT22;9330;52.210;21.174;2023-09-08T10:09:42;24.70;99.90
18408;DHT22;9330;52.210;21.174;2023-09-08T10:12:13;24.70;99.90
18408;DHT22;9330;52.210;21.174;2023-09-08T10:14:42;24.60;99.90
18408;DHT22;9330;52.210;21.174;2023-09-08T10:17:12;24.60;99.90
18408;DHT22;9330;52.210;21.174;2023-09-08T10:19:42;24.60;99.90
18408;DHT22;9330;52.210;21.174;2023-09-08T10:22:12;24.70;99.10
18408;DHT22;9330;52.210;21.174;2023-09-08T10:24:42;24.70;99.70
18408;DHT22;9330;52.210;21.174;2023-09-08T10:27:12;24.80;99.90
18408;DHT22;9330;52.210;21.174;2023-09-08T10:29:39;24.80;99.60
18408;DHT22;9330;52.210;21.174;2023-09-08T10:32:08;24.90;99.90
18408;DHT22;9330;52.210;21.174;2023-09-08T10:34:36;24.90;98.20
18408;DHT22;9330;52.210;21.174;2023-09-08T10:37:18;25.00;95.30
18408;DHT22;9330;52.210;21.174;2023-09-08T10:39:45;25.20;94.20
18408;DHT22;9330;52.210;21.174;2023-09-08T10:42:24;25.20;95.30
18408;DHT22;9330;52.210;21.174;2023-09-08T10:45:01;25.30;97.60
18408;DHT22;9330;52.210;21.174;2023-09-08T10:47:31;25.40;94.90
18408;DHT22;9330;52.210;21.174;2023-09-08T10:49:59;25.40;94.30
18408;DHT22;9330;52.210;21.174;2023-09-08T10:52:26;25.50;97.00
18408;DHT22;9330;52.210;21.174;2023-09-08T10:54:55;25.40;92.80
18408;DHT22;9330;52.210;21.174;2023-09-08T10:57:24;25.50;87.20
18408;DHT22;9330;52.210;21.174;2023-09-08T10:59:52;25.60;93.70
18408;DHT22;9330;52.210;21.174;2023-09-08T11:02:33;25.60;91.20
18408;DHT22;9330;52.210;21.174;2023-09-08T11:05:01;25.70;91.70
18408;DHT22;9330;52.210;21.174;2023-09-08T11:07:28;25.90;92.10
18408;DHT22;9330;52.210;21.174;2023-09-08T11:09:55;26.00;92.20
18408;DHT22;9330;52.210;21.174;2023-09-08T11:12:27;26.00;91.30
18408;DHT22;9330;52.210;21.174;2023-09-08T11:14:54;25.90;90.50
18408;DHT22;9330;52.210;21.174;2023-09-08T11:17:24;25.80;91.00
18408;DHT22;9330;52.210;21.174;2023-09-08T11:19:51;25.70;91.40
18408;DHT22;9330;52.210;21.174;2023-09-08T11:22:18;25.80;97.80
18408;DHT22;9330;52.210;21.174;2023-09-08T11:24:45;25.90;94.30
18408;DHT22;9330;52.210;21.174;2023-09-08T11:27:12;26.00;95.60
18408;DHT22;9330;52.210;21.174;2023-09-08T11:29:40;26.20;93.40
18408;DHT22;9330;52.210;21.174;2023-09-08T11:32:08;26.20;91.80
18408;DHT22;9330;52.210;21.174;2023-09-08T11:34:35;26.20;93.00
18408;DHT22;9330;52.210;21.174;2023-09-08T11:37:07;26.10;91.30
18408;DHT22;9330;52.210;21.174;2023-09-08T11:39:37;26.00;91.10
18408;DHT22;9330;52.210;21.174;2023-09-08T11:42:04;25.80;93.60
18408;DHT22;9330;52.210;21.174;2023-09-08T11:44:31;25.80;96.10
18408;DHT22;9330;52.210;21.174;2023-09-08T11:47:00;25.90;93.30
18408;DHT22;9330;52.210;21.174;2023-09-08T11:49:33;26.00;91.50
18408;DHT22;9330;52.210;21.174;2023-09-08T11:52:00;26.10;88.30
18408;DHT22;9330;52.210;21.174;2023-09-08T11:54:28;26.20;81.70
18408;DHT22;9330;52.210;21.174;2023-09-08T11:56:55;26.30;80.50
18408;DHT22;9330;52.210;21.174;2023-09-08T11:59:22;26.40;82.10
18408;DHT22;9330;52.210;21.174;2023-09-08T12:01:50;26.70;78.80
18408;DHT22;9330;52.210;21.174;2023-09-08T12:04:18;26.80;86.40
18408;DHT22;9330;52.210;21.174;2023-09-08T12:06:46;27.00;87.20
18408;DHT22;9330;52.210;21.174;2023-09-08T12:09:14;27.30;84.90
18408;DHT22;9330;52.210;21.174;2023-09-08T12:11:42;27.60;81.50
18408;DHT22;9330;52.210;21.174;2023-09-08T12:14:12;27.70;77.70
18408;DHT22;9330;52.210;21.174;2023-09-08T12:16:40;27.50;74.70
18408;DHT22;9330;52.210;21.174;2023-09-08T12:19:08;27.40;76.70
18408;DHT22;9330;52.210;21.174;2023-09-08T12:21:55;27.20;71.10
18408;DHT22;9330;52.210;21.174;2023-09-08T12:24:46;26.90;75.40
18408;DHT22;9330;52.210;21.174;2023-09-08T12:27:14;26.70;88.00
18408;DHT22;9330;52.210;21.174;2023-09-08T12:29:41;26.80;91.20
18408;DHT22;9330;52.210;21.174;2023-09-08T12:32:08;27.20;73.70
18408;DHT22;9330;52.210;21.174;2023-09-08T12:34:35;27.50;82.90
18408;DHT22;9330;52.210;21.174;2023-09-08T12:37:06;27.40;73.50
18408;DHT22;9330;52.210;21.174;2023-09-08T12:39:35;27.20;71.50
18408;DHT22;9330;52.210;21.174;2023-09-08T12:42:04;26.90;72.30
18408;DHT22;9330;52.210;21.174;2023-09-08T12:44:31;26.60;74.60
18408;DHT22;9330;52.210;21.174;2023-09-08T12:46:58;26.40;86.00
18408;DHT22;9330;52.210;21.174;2023-09-08T12:49:25;26.60;95.00
18408;DHT22;9330;52.210;21.174;2023-09-08T12:51:51;27.10;95.50
18408;DHT22;9330;52.210;21.174;2023-09-08T12:54:20;27.60;93.80
18408;DHT22;9330;52.210;21.174;2023-09-08T12:56:46;28.10;79.00
18408;DHT22;9330;52.210;21.174;2023-09-08T12:59:13;28.30;76.30
18408;DHT22;9330;52.210;21.174;2023-09-08T13:01:40;28.70;73.30
18408;DHT22;9330;52.210;21.174;2023-09-08T13:04:07;29.10;62.70
18408;DHT22;9330;52.210;21.174;2023-09-08T13:06:34;29.70;72.50
18408;DHT22;9330;52.210;21.174;2023-09-08T13:09:01;30.30;56.50
18408;DHT22;9330;52.210;21.174;2023-09-08T13:11:29;30.50;58.20
18408;DHT22;9330;52.210;21.174;2023-09-08T13:13:56;30.70;52.80
18408;DHT22;9330;52.210;21.174;2023-09-08T13:16:22;30.80;58.70
18408;DHT22;9330;52.210;21.174;2023-09-08T13:18:49;30.90;52.50
18408;DHT22;9330;52.210;21.174;2023-09-08T13:21:16;31.10;56.80
18408;DHT22;9330;52.210;21.174;2023-09-08T13:23:43;31.20;52.20
18408;DHT22;9330;52.210;21.174;2023-09-08T13:26:10;31.00;52.40
18408;DHT22;9330;52.210;21.174;2023-09-08T13:28:38;30.90;51.60
18408;DHT22;9330;52.210;21.174;2023-09-08T13:31:05;30.70;50.30
18408;DHT22;9330;52.210;21.174;2023-09-08T13:33:32;30.10;48.00
18408;DHT22;9330;52.210;21.174;2023-09-08T13:35:59;29.70;47.60
18408;DHT22;9330;52.210;21.174;2023-09-08T13:38:26;29.60;49.30
18408;DHT22;9330;52.210;21.174;2023-09-08T13:40:52;29.30;50.10
18408;DHT22;9330;52.210;21.174;2023-09-08T13:43:22;29.10;49.80
18408;DHT22;9330;52.210;21.174;2023-09-08T13:46:04;28.90;52.50
18408;DHT22;9330;52.210;21.174;2023-09-08T13:48:31;28.60;52.90
18408;DHT22;9330;52.210;21.174;2023-09-08T13:51:01;28.40;50.00
18408;DHT22;9330;52.210;21.174;2023-09-08T13:53:28;28.20;54.20
18408;DHT22;9330;52.210;21.174;2023-09-08T13:55:55;28.00;56.30
18408;DHT22;9330;52.210;21.174;2023-09-08T13:58:22;27.90;56.10
18408;DHT22;9330;52.210;21.174;2023-09-08T14:00:49;27.60;56.70
18408;DHT22;9330;52.210;21.174;2023-09-08T14:03:18;27.50;57.20
18408;DHT22;9330;52.210;21.174;2023-09-08T14:05:45;27.30;55.50
18408;DHT22;9330;52.210;21.174;2023-09-08T14:08:12;27.20;54.10
18408;DHT22;9330;52.210;21.174;2023-09-08T14:10:38;27.10;54.70
18408;DHT22;9330;52.210;21.174;2023-09-08T14:13:05;27.00;52.60
18408;DHT22;9330;52.210;21.174;2023-09-08T14:15:32;26.80;60.00
18408;DHT22;9330;52.210;21.174;2023-09-08T14:17:59;26.70;57.60
18408;DHT22;9330;52.210;21.174;2023-09-08T14:20:27;26.50;59.20
18408;DHT22;9330;52.210;21.174;2023-09-08T14:22:54;26.40;56.60
18408;DHT22;9330;52.210;21.174;2023-09-08T14:25:20;26.30;55.20
18408;DHT22;9330;52.210;21.174;2023-09-08T14:27:48;26.20;56.30
18408;DHT22;9330;52.210;21.174;2023-09-08T14:30:14;26.10;63.20
18408;DHT22;9330;52.210;21.174;2023-09-08T14:32:41;26.00;63.70
18408;DHT22;9330;52.210;21.174;2023-09-08T14:35:09;25.90;62.60
18408;DHT22;9330;52.210;21.174;2023-09-08T14:37:37;25.90;60.80
18408;DHT22;9330;52.210;21.174;2023-09-08T14:40:05;25.70;57.60
18408;DHT22;9330;52.210;21.174;2023-09-08T14:42:32;25.70;67.30
18408;DHT22;9330;52.210;21.174;2023-09-08T14:44:59;25.60;63.70
18408;DHT22;9330;52.210;21.174;2023-09-08T14:47:25;25.60;67.50
18408;DHT22;9330;52.210;21.174;2023-09-08T14:49:52;25.50;69.80
18408;DHT22;9330;52.210;21.174;2023-09-08T14:52:19;25.40;71.40
18408;DHT22;9330;52.210;21.174;2023-09-08T14:54:48;25.40;75.00
18408;DHT22;9330;52.210;21.174;2023-09-08T14:57:15;25.30;78.20
18408;DHT22;9330;52.210;21.174;2023-09-08T14:59:42;25.30;69.70
18408;DHT22;9330;52.210;21.174;2023-09-08T15:02:09;25.20;78.60
18408;DHT22;9330;52.210;21.174;2023-09-08T15:04:36;25.10;75.10
18408;DHT22;9330;52.210;21.174;2023-09-08T15:07:03;25.10;70.60
18408;DHT22;9330;52.210;21.174;2023-09-08T15:09:30;25.10;80.20
18408;DHT22;9330;52.210;21.174;2023-09-08T15:11:58;25.00;79.10
18408;DHT22;9330;52.210;21.174;2023-09-08T15:14:25;25.00;78.30
18408;DHT22;9330;52.210;21.174;2023-09-08T15:16:52;24.90;80.00
18408;DHT22;9330;52.210;21.174;2023-09-08T15:19:18;24.90;80.20
18408;DHT22;9330;52.210;21.174;2023-09-08T15:21:45;24.90;82.40
18408;DHT22;9330;52.210;21.174;2023-09-08T15:24:12;24.90;85.30
18408;DHT22;9330;52.210;21.174;2023-09-08T15:26:39;24.80;79.90
18408;DHT22;9330;52.210;21.174;2023-09-08T15:29:07;24.80;83.70
18408;DHT22;9330;52.210;21.174;2023-09-08T15:31:34;24.80;83.70
18408;DHT22;9330;52.210;21.174;2023-09-08T15:34:00;24.70;81.20